Terminal Aerodrome Forecast
Issued by NWS Bismarck, ND

Home | Current Version | Previous Version | Text Only | Print | Product List | Glossary Off
Versions: 1 2 3 4 5 6 7 8 9 10 11 12

124
FTUS43 KBIS 152329
TAFBIS
TAF
KBIS 152329Z 1600/1624 VRB05KT P6SM FEW250
     FM161800 30007KT P6SM BKN040=

USA.gov is the U.S. government's official web portal to all federal, state and local government web resources and services.